createdAt,value
2019-02-05T00:01:25.143Z,3.83
2019-02-05T00:06:26.740Z,3.90
2019-02-05T00:11:28.112Z,4.17
2019-02-05T00:16:29.574Z,4.33
2019-02-05T00:21:31.340Z,3.77
2019-02-05T00:26:32.680Z,3.93
2019-02-05T00:31:34.068Z,4.07
2019-02-05T00:36:37.592Z,4.37
2019-02-05T00:41:38.916Z,4.50
2019-02-05T00:46:40.334Z,3.80
2019-02-05T00:51:41.763Z,4.40
2019-02-05T00:56:43.161Z,4.37
2019-02-05T01:01:44.919Z,4.67
2019-02-05T01:06:46.258Z,5.27
2019-02-05T01:11:47.652Z,4.23
2019-02-05T01:16:51.062Z,4.60
2019-02-05T01:21:52.421Z,4.23
2019-02-05T01:26:54.063Z,4.40
2019-02-05T01:31:55.537Z,4.47
2019-02-05T01:36:56.927Z,4.73
2019-02-05T01:41:58.364Z,4.97
2019-02-05T01:46:59.779Z,4.57
2019-02-05T01:52:01.294Z,4.37
2019-02-05T01:57:02.883Z,4.53
2019-02-05T02:02:04.424Z,5.00
2019-02-05T02:07:06.840Z,5.20
2019-02-05T02:12:08.258Z,4.57
2019-02-05T02:17:09.783Z,4.77
2019-02-05T02:22:11.235Z,5.20
2019-02-05T02:27:12.679Z,5.63
2019-02-05T02:32:14.085Z,5.10
2019-02-05T02:37:15.618Z,6.00
2019-02-05T02:42:17.013Z,5.30
2019-02-05T02:47:18.778Z,4.63
2019-02-05T02:52:20.146Z,5.10
2019-02-05T02:57:22.541Z,5.93
2019-02-05T03:02:24.921Z,5.27
2019-02-05T03:07:26.382Z,5.80
2019-02-05T03:12:27.724Z,5.77
2019-02-05T03:17:29.139Z,5.47
2019-02-05T03:22:30.557Z,5.23
2019-02-05T03:27:32.990Z,5.00
2019-02-05T03:32:34.322Z,5.10
2019-02-05T03:37:36.725Z,5.03
2019-02-05T03:42:38.163Z,5.37
2019-02-05T03:47:39.708Z,5.47
2019-02-05T03:52:46.851Z,5.07
2019-02-05T03:58:29.173Z,4.27
2019-02-05T04:04:02.225Z,4.57
2019-02-05T04:09:21.032Z,4.70
2019-02-05T04:15:07.594Z,4.70
2019-02-05T04:20:17.504Z,4.63
2019-02-05T04:25:41.731Z,4.33
2019-02-05T04:31:19.489Z,4.23
2019-02-05T04:36:35.714Z,4.67
2019-02-05T04:41:52.199Z,4.20
2019-02-05T04:47:12.102Z,5.10
2019-02-05T04:52:46.395Z,4.90
2019-02-05T04:58:08.473Z,4.50
2019-02-05T05:03:33.898Z,5.43
2019-02-05T05:08:57.745Z,5.20
2019-02-05T05:13:59.252Z,5.30
2019-02-05T05:19:01.410Z,5.60
2019-02-05T05:24:03.517Z,5.77
2019-02-05T05:29:05.072Z,5.23
2019-02-05T05:34:06.582Z,5.80
2019-02-05T05:39:08.134Z,5.77
2019-02-05T05:44:09.834Z,6.07
2019-02-05T05:49:11.282Z,5.93
2019-02-05T05:54:14.391Z,6.80
2019-02-05T05:59:15.860Z,6.40
2019-02-05T06:04:17.286Z,6.43
2019-02-05T06:09:18.964Z,6.20
2019-02-05T06:14:20.353Z,7.27
2019-02-05T06:19:21.925Z,7.63
2019-02-05T06:24:23.352Z,6.63
2019-02-05T06:29:24.769Z,7.20
2019-02-05T06:34:27.127Z,6.77
2019-02-05T06:39:28.506Z,7.77
2019-02-05T06:44:29.934Z,7.17
2019-02-05T06:49:31.335Z,7.53
2019-02-05T06:54:32.763Z,7.97
2019-02-05T06:59:34.291Z,8.40
2019-02-05T07:04:35.722Z,8.33
2019-02-05T07:09:37.182Z,8.00
2019-02-05T07:14:38.706Z,9.37
2019-02-05T07:19:40.732Z,9.30
2019-02-05T07:24:42.330Z,9.63
2019-02-05T07:29:43.774Z,10.23
2019-02-05T07:34:45.507Z,10.00
2019-02-05T07:39:46.905Z,9.20
2019-02-05T07:44:48.294Z,10.13
2019-02-05T07:49:50.279Z,9.90
2019-02-05T07:54:51.788Z,10.47
2019-02-05T07:59:53.215Z,10.10
2019-02-05T08:04:54.962Z,9.90
2019-02-05T08:09:56.451Z,11.27
2019-02-05T08:14:59.040Z,9.90
2019-02-05T08:20:01.929Z,10.30
2019-02-05T08:25:11.019Z,10.40
2019-02-05T08:30:28.878Z,10.67
2019-02-05T08:35:30.630Z,11.20
2019-02-05T08:40:33.108Z,10.43
2019-02-05T08:45:37.800Z,10.60
2019-02-05T08:50:39.584Z,10.77
2019-02-05T08:55:41.100Z,12.87
2019-02-05T09:00:43.129Z,10.73
2019-02-05T09:05:44.610Z,11.03
2019-02-05T09:10:46.404Z,10.83
2019-02-05T09:15:48.163Z,11.03
2019-02-05T09:20:49.620Z,12.07
2019-02-05T09:25:52.165Z,11.90
2019-02-05T09:30:53.603Z,12.03
2019-02-05T09:35:55.078Z,11.73
2019-02-05T09:40:56.610Z,11.50
2019-02-05T09:45:58.102Z,10.77
2019-02-05T09:50:59.659Z,12.03
2019-02-05T09:56:01.356Z,10.90
2019-02-05T10:01:04.416Z,10.27
2019-02-05T10:06:05.785Z,11.53
2019-02-05T10:11:07.172Z,11.93
2019-02-05T10:16:08.746Z,10.70
2019-02-05T10:21:10.455Z,10.83
2019-02-05T10:26:11.954Z,11.13
2019-02-05T10:31:13.777Z,10.57
2019-02-05T10:36:15.324Z,11.37
2019-02-05T10:41:16.999Z,14.20
2019-02-05T10:46:18.572Z,12.07
2019-02-05T10:51:20.011Z,10.60
2019-02-05T10:56:21.805Z,9.90
2019-02-05T11:01:24.394Z,10.23
2019-02-05T11:06:26.072Z,10.17
2019-02-05T11:11:28.250Z,9.07
2019-02-05T11:16:29.836Z,9.10
2019-02-05T11:21:31.286Z,9.23
2019-02-05T11:26:32.968Z,10.10
2019-02-05T11:31:34.851Z,9.70
2019-02-05T11:36:36.377Z,8.67
2019-02-05T11:41:38.800Z,10.03
2019-02-05T11:46:40.376Z,9.03
2019-02-05T11:51:41.807Z,9.33
2019-02-05T11:56:43.301Z,9.20
2019-02-05T12:01:44.938Z,9.27
2019-02-05T12:06:46.321Z,8.70
2019-02-05T12:11:48.842Z,9.53
2019-02-05T12:16:50.299Z,8.63
2019-02-05T12:21:53.082Z,9.50
2019-02-05T12:26:54.636Z,9.90
2019-02-05T12:31:56.132Z,8.83
2019-02-05T12:36:57.590Z,8.57
2019-02-05T12:41:59.271Z,9.37
2019-02-05T12:47:00.730Z,7.37
2019-02-05T12:52:03.715Z,7.80
2019-02-05T12:57:05.295Z,7.17
2019-02-05T13:02:06.832Z,6.80
2019-02-05T13:07:08.739Z,6.50
2019-02-05T13:12:10.355Z,6.50
2019-02-05T13:17:12.100Z,5.60
2019-02-05T13:22:13.551Z,5.53
2019-02-05T13:27:15.089Z,6.20
2019-02-05T13:32:16.487Z,6.07
2019-02-05T13:37:17.930Z,6.13
2019-02-05T13:42:19.417Z,6.63
2019-02-05T13:47:20.855Z,6.13
2019-02-05T13:52:22.350Z,6.40
2019-02-05T13:57:23.815Z,6.00
2019-02-05T14:02:26.203Z,5.37
2019-02-05T14:07:27.649Z,5.80
2019-02-05T14:12:29.179Z,5.63
2019-02-05T14:17:30.795Z,6.03
2019-02-05T14:22:32.263Z,5.43
2019-02-05T14:27:34.385Z,5.50
2019-02-05T14:32:35.800Z,6.33
2019-02-05T14:37:37.485Z,5.97
2019-02-05T14:42:39.060Z,5.97
2019-02-05T14:47:40.827Z,5.50
2019-02-05T14:52:42.280Z,5.57
2019-02-05T14:57:43.965Z,5.93
2019-02-05T15:02:45.446Z,6.33
2019-02-05T15:07:47.418Z,5.77
2019-02-05T15:12:49.311Z,6.77
2019-02-05T15:17:51.161Z,5.67
2019-02-05T15:22:52.848Z,5.60
2019-02-05T15:27:54.477Z,5.77
2019-02-05T15:33:07.077Z,5.60
2019-02-05T15:38:08.715Z,5.13
2019-02-05T15:43:10.347Z,5.30
2019-02-05T15:48:11.941Z,6.07
2019-02-05T15:53:13.487Z,6.07
2019-02-05T15:58:15.407Z,6.17
2019-02-05T16:03:17.115Z,6.83
2019-02-05T16:08:19.574Z,6.40
2019-02-05T16:13:21.121Z,6.70
2019-02-05T16:18:22.899Z,7.00
2019-02-05T16:23:24.757Z,6.00
2019-02-05T16:28:26.213Z,5.90
2019-02-05T16:33:27.699Z,5.60
2019-02-05T16:38:29.583Z,5.97
2019-02-05T16:43:32.059Z,6.30
2019-02-05T16:48:33.641Z,6.33
2019-02-05T16:53:35.180Z,6.50
2019-02-05T16:58:36.733Z,6.40
2019-02-05T17:03:38.117Z,6.03
2019-02-05T17:08:39.811Z,6.40
2019-02-05T17:13:41.282Z,7.37
2019-02-05T17:18:43.027Z,6.80
2019-02-05T17:23:44.462Z,7.57
2019-02-05T17:28:45.878Z,7.40
2019-02-05T17:33:47.853Z,8.00
2019-02-05T17:38:49.499Z,7.20
2019-02-05T17:43:50.892Z,6.57
2019-02-05T17:48:52.362Z,6.40
2019-02-05T17:53:53.802Z,6.63
2019-02-05T17:58:55.198Z,6.10
2019-02-05T18:03:56.709Z,5.40
2019-02-05T18:08:58.098Z,5.30
2019-02-05T18:14:00.622Z,4.57
2019-02-05T18:19:03.594Z,3.87
2019-02-05T18:24:05.185Z,2.90
2019-02-05T18:29:06.854Z,3.00
2019-02-05T18:34:08.514Z,3.10
2019-02-05T18:39:11.301Z,2.93
2019-02-05T18:44:12.637Z,2.63
2019-02-05T18:49:14.852Z,3.37
2019-02-05T18:54:16.254Z,3.83
2019-02-05T18:59:17.716Z,3.47
2019-02-05T19:04:19.122Z,4.30
2019-02-05T19:09:20.516Z,3.30
2019-02-05T19:14:23.350Z,4.10
2019-02-05T19:19:25.193Z,4.10
2019-02-05T19:24:34.471Z,4.27
2019-02-05T19:29:35.910Z,4.43
2019-02-05T19:34:37.234Z,5.13
2019-02-05T19:39:38.639Z,5.80
2019-02-05T19:44:42.939Z,5.63
2019-02-05T19:49:44.429Z,7.40
2019-02-05T19:54:45.767Z,5.87
2019-02-05T19:59:47.173Z,6.37
2019-02-05T20:04:48.614Z,5.50
2019-02-05T20:09:50.024Z,5.90
2019-02-05T20:14:51.655Z,5.40
2019-02-05T20:19:53.025Z,5.77
2019-02-05T20:24:55.495Z,6.20
2019-02-05T20:29:57.295Z,5.50
2019-02-05T20:34:58.627Z,6.00
2019-02-05T20:40:00.010Z,5.63
2019-02-05T20:45:01.801Z,5.70
2019-02-05T20:50:11.351Z,6.10
2019-02-05T20:55:17.527Z,5.93
2019-02-05T21:00:28.694Z,7.97
2019-02-05T21:05:30.065Z,7.33
2019-02-05T21:10:32.377Z,7.10
2019-02-05T21:15:33.820Z,6.80
2019-02-05T21:20:35.218Z,6.40
2019-02-05T21:25:36.539Z,6.07
2019-02-05T21:30:37.915Z,6.50
2019-02-05T21:35:39.282Z,6.37
2019-02-05T21:40:40.659Z,6.13
2019-02-05T21:45:44.066Z,6.97
2019-02-05T21:50:45.407Z,6.87
2019-02-05T21:55:46.800Z,7.77
2019-02-05T22:00:48.165Z,7.50
2019-02-05T22:05:49.631Z,7.30
2019-02-05T22:10:51.225Z,7.60
2019-02-05T22:15:53.690Z,7.10
2019-02-05T22:20:55.123Z,6.87
2019-02-05T22:25:57.748Z,7.83
2019-02-05T22:30:59.087Z,6.73
2019-02-05T22:36:00.619Z,6.90
2019-02-05T22:41:02.016Z,7.00
2019-02-05T22:46:03.534Z,7.93
2019-02-05T22:51:05.521Z,7.00
2019-02-05T22:56:07.346Z,7.77
2019-02-05T23:01:24.343Z,6.53
2019-02-05T23:06:43.377Z,6.73
2019-02-05T23:12:23.867Z,6.37
2019-02-05T23:17:25.318Z,6.07
2019-02-05T23:22:26.650Z,6.43
2019-02-05T23:27:28.101Z,5.87
2019-02-05T23:32:29.510Z,5.40
2019-02-05T23:37:30.843Z,5.77
2019-02-05T23:42:32.245Z,5.30
2019-02-05T23:47:33.582Z,5.13
2019-02-05T23:52:34.958Z,5.13
2019-02-05T23:57:36.742Z,5.70
